Skip Navigation Links Skip Navigation Links

Current Weather

Morey, Middleton, Wis.

For information only: do not use for flight planning or navigation.
Latest weather
Observation time Friday, December 3, 2021 4:55 AM CST
Local time Friday, December 3, 2021 5:07 AM CST
Flight conditions Marginal Visual Meteorological Conditions
Winds
Wind direction Northeast (40°)
Wind speed 5 mph
Visibility 10 mi.
Sky condition
Ceiling 1,900 ft. broken clouds
Cloud layer scattered clouds 400 ft.
Cloud layer broken clouds 1,900 ft.
Cloud layer overcast 6,000 ft.
Temperature 36°F
Dewpoint 35°F
Altimeter 30.04 in.Hg
Derived measurements
Relative humidity 96%
Wind chill 32°F
Density altitude -653 ft.
Remarks
Fully automated report.
Automated weather observing station without precipitation discriminator.
METAR KC29 031055Z AUTO 04004KT 10SM SCT004 BKN019 OVC060 02/02 A3004 RMK AO1 T00230017

Settings

Location code

InnerDrive.Weather 4.0.6770.0 Release CLR 4.0.30319.42000
Copyright ©2018 Inner Drive Technology. All rights reserved. Portions Copyright ©1986-2018 David Braverman.

Find weather

Site navigation


Skip Navigation Links

Place info

Page info

PayPal - The safer, easier way to pay online!

Return home.

Copyright ©2021 Inner Drive Technology. Purveyors of fine, hand-crafted computer software. Page printed 2021-12-03T11:07:16 UTC.